createdAt,value
2022-09-18T00:00:15.121Z,81
2022-09-18T00:05:15.101Z,81
2022-09-18T00:10:15.107Z,82
2022-09-18T00:15:15.099Z,82
2022-09-18T00:20:15.116Z,81
2022-09-18T00:25:15.111Z,81
2022-09-18T00:30:15.108Z,81
2022-09-18T00:35:15.096Z,82
2022-09-18T00:40:15.164Z,82
2022-09-18T00:45:15.106Z,82
2022-09-18T00:50:15.112Z,82
2022-09-18T00:55:15.103Z,82
2022-09-18T01:00:15.121Z,82
2022-09-18T01:05:15.105Z,82
2022-09-18T01:10:15.103Z,82
2022-09-18T01:15:15.101Z,82
2022-09-18T01:20:15.100Z,83
2022-09-18T01:25:15.093Z,82
2022-09-18T01:30:15.096Z,82
2022-09-18T01:35:37.122Z,82
2022-09-18T01:40:15.185Z,82
2022-09-18T01:45:15.106Z,82
2022-09-18T01:50:15.112Z,82
2022-09-18T01:55:15.102Z,82
2022-09-18T02:00:15.106Z,81
2022-09-18T02:05:15.092Z,81
2022-09-18T02:10:15.158Z,81
2022-09-18T02:15:15.100Z,81
2022-09-18T02:20:15.110Z,81
2022-09-18T02:25:15.099Z,81
2022-09-18T02:30:15.113Z,81
2022-09-18T02:35:15.097Z,81
2022-09-18T02:40:15.250Z,81
2022-09-18T02:45:15.098Z,81
2022-09-18T02:50:15.107Z,81
2022-09-18T02:55:15.092Z,81
2022-09-18T03:00:15.104Z,81
2022-09-18T03:05:15.108Z,82
2022-09-18T03:10:15.112Z,81
2022-09-18T03:15:15.106Z,81
2022-09-18T03:20:15.122Z,81
2022-09-18T03:25:15.113Z,81
2022-09-18T03:30:15.104Z,81
2022-09-18T03:35:15.101Z,81
2022-09-18T03:40:15.144Z,81
2022-09-18T03:45:15.095Z,81
2022-09-18T03:50:15.120Z,81
2022-09-18T03:55:15.091Z,81
2022-09-18T04:00:15.103Z,81
2022-09-18T04:05:15.093Z,81
2022-09-18T04:10:15.100Z,81
2022-09-18T04:15:15.110Z,81
2022-09-18T04:20:15.105Z,81
2022-09-18T04:25:15.118Z,81
2022-09-18T04:30:15.107Z,81
2022-09-18T04:35:15.110Z,81
2022-09-18T04:40:15.132Z,81
2022-09-18T04:45:15.107Z,81
2022-09-18T04:50:15.118Z,81
2022-09-18T04:55:15.111Z,81
2022-09-18T05:00:15.100Z,82
2022-09-18T05:05:15.104Z,82
2022-09-18T05:10:15.107Z,82
2022-09-18T05:15:15.106Z,82
2022-09-18T05:20:15.125Z,82
2022-09-18T05:25:15.104Z,83
2022-09-18T05:30:15.110Z,83
2022-09-18T05:35:15.102Z,83
2022-09-18T05:40:15.132Z,83
2022-09-18T05:45:15.092Z,83
2022-09-18T05:50:15.117Z,83
2022-09-18T05:55:15.105Z,84
2022-09-18T06:00:15.115Z,84
2022-09-18T06:05:15.094Z,84
2022-09-18T06:10:15.105Z,84
2022-09-18T06:15:15.102Z,84
2022-09-18T06:20:15.096Z,84
2022-09-18T06:25:15.094Z,84
2022-09-18T06:30:15.110Z,85
2022-09-18T06:35:15.092Z,85
2022-09-18T06:40:15.136Z,85
2022-09-18T06:45:15.098Z,85
2022-09-18T06:50:15.119Z,85
2022-09-18T06:55:15.097Z,85
2022-09-18T07:00:15.101Z,85
2022-09-18T07:05:15.126Z,85
2022-09-18T07:10:15.099Z,85
2022-09-18T07:15:15.106Z,85
2022-09-18T07:20:15.121Z,85
2022-09-18T07:25:15.095Z,85
2022-09-18T07:30:15.110Z,85
2022-09-18T07:35:15.128Z,84
2022-09-18T07:40:15.203Z,84
2022-09-18T07:45:15.117Z,84
2022-09-18T07:50:15.106Z,84
2022-09-18T07:55:15.108Z,84
2022-09-18T08:00:15.114Z,83
2022-09-18T08:05:15.104Z,83
2022-09-18T08:10:15.122Z,83
2022-09-18T08:15:15.103Z,83
2022-09-18T08:20:15.110Z,83
2022-09-18T08:25:15.101Z,83
2022-09-18T08:30:15.108Z,82
2022-09-18T08:35:15.105Z,82
2022-09-18T08:40:15.175Z,82
2022-09-18T08:45:15.104Z,81
2022-09-18T08:50:15.102Z,81
2022-09-18T08:55:15.104Z,81
2022-09-18T09:00:15.106Z,81
2022-09-18T09:05:15.100Z,81
2022-09-18T09:10:15.111Z,82
2022-09-18T09:15:18.287Z,82
2022-09-18T09:20:15.102Z,82
2022-09-18T09:25:15.104Z,83
2022-09-18T09:30:15.098Z,83
2022-09-18T09:35:15.098Z,83
2022-09-18T09:40:15.127Z,83
2022-09-18T09:45:15.109Z,83
2022-09-18T09:50:15.099Z,83
2022-09-18T09:55:15.100Z,83
2022-09-18T10:00:15.106Z,83
2022-09-18T10:05:15.086Z,83
2022-09-18T10:10:15.170Z,83
2022-09-18T10:15:15.098Z,82
2022-09-18T10:20:15.161Z,82
2022-09-18T10:25:15.096Z,82
2022-09-18T10:30:15.110Z,82
2022-09-18T10:35:15.099Z,82
2022-09-18T10:40:15.169Z,82
2022-09-18T10:45:15.091Z,82
2022-09-18T10:50:15.107Z,82
2022-09-18T10:55:15.110Z,83
2022-09-18T11:00:15.113Z,83
2022-09-18T11:05:15.105Z,83
2022-09-18T11:10:15.102Z,83
2022-09-18T11:15:15.100Z,83
2022-09-18T11:20:15.103Z,82
2022-09-18T11:25:15.104Z,82
2022-09-18T11:30:15.099Z,81
2022-09-18T11:35:15.100Z,81
2022-09-18T11:40:15.161Z,80
2022-09-18T11:45:15.106Z,80
2022-09-18T11:50:15.128Z,80
2022-09-18T11:55:15.089Z,80
2022-09-18T12:00:15.235Z,80
2022-09-18T12:05:15.100Z,79
2022-09-18T12:10:13.752Z,79
2022-09-18T12:15:13.745Z,79
2022-09-18T12:20:13.749Z,78
2022-09-18T12:25:13.749Z,78
2022-09-18T12:30:13.733Z,78
2022-09-18T12:35:13.737Z,78
2022-09-18T12:40:14.484Z,77
2022-09-18T12:45:14.376Z,77
2022-09-18T12:50:14.376Z,76
2022-09-18T12:55:14.370Z,76
2022-09-18T13:00:14.379Z,76
2022-09-18T13:05:14.360Z,74
2022-09-18T13:10:14.380Z,73
2022-09-18T13:15:14.357Z,73
2022-09-18T13:20:15.086Z,73
2022-09-18T13:25:15.084Z,73
2022-09-18T13:30:15.100Z,72
2022-09-18T13:35:15.071Z,72
2022-09-18T13:40:15.129Z,72
2022-09-18T13:45:15.071Z,72
2022-09-18T13:50:15.081Z,72
2022-09-18T13:55:15.059Z,72
2022-09-18T14:00:15.075Z,72
2022-09-18T14:05:15.068Z,73
2022-09-18T14:10:15.069Z,74
2022-09-18T14:15:15.064Z,74
2022-09-18T14:20:15.072Z,74
2022-09-18T14:25:15.048Z,75
2022-09-18T14:30:15.121Z,76
2022-09-18T14:35:15.069Z,76
2022-09-18T14:40:15.124Z,76
2022-09-18T14:45:15.060Z,78
2022-09-18T14:50:15.080Z,78
2022-09-18T14:55:15.061Z,77
2022-09-18T15:00:15.068Z,77
2022-09-18T15:05:15.073Z,77
2022-09-18T15:10:15.064Z,77
2022-09-18T15:15:15.068Z,78
2022-09-18T15:20:15.081Z,78
2022-09-18T15:25:15.080Z,79
2022-09-18T15:30:15.097Z,79
2022-09-18T15:35:15.089Z,79
2022-09-18T15:40:15.132Z,79
2022-09-18T15:45:15.107Z,80
2022-09-18T15:50:15.101Z,80
2022-09-18T15:55:15.107Z,80
2022-09-18T16:00:15.106Z,80
2022-09-18T16:05:15.121Z,81
2022-09-18T16:10:15.104Z,81
2022-09-18T16:15:15.103Z,81
2022-09-18T16:20:15.100Z,81
2022-09-18T16:25:15.087Z,81
2022-09-18T16:30:15.118Z,81
2022-09-18T16:35:15.089Z,82
2022-09-18T16:40:15.180Z,82
2022-09-18T16:45:15.087Z,83
2022-09-18T16:50:15.094Z,83
2022-09-18T16:55:15.107Z,83
2022-09-18T17:00:15.109Z,83
2022-09-18T17:05:15.101Z,83
2022-09-18T17:10:15.115Z,84
2022-09-18T17:15:15.096Z,84
2022-09-18T17:20:15.114Z,84
2022-09-18T17:25:15.096Z,84
2022-09-18T17:30:15.097Z,85
2022-09-18T17:35:15.097Z,84
2022-09-18T17:40:15.125Z,84
2022-09-18T17:45:15.098Z,84
2022-09-18T17:50:15.089Z,84
2022-09-18T17:55:15.089Z,84
2022-09-18T18:00:15.095Z,84
2022-09-18T18:05:15.090Z,84
2022-09-18T18:10:15.098Z,84
2022-09-18T18:15:15.102Z,84
2022-09-18T18:20:15.102Z,84
2022-09-18T18:25:15.089Z,84
2022-09-18T18:30:15.117Z,84
2022-09-18T18:35:15.090Z,84
2022-09-18T18:40:15.159Z,84
2022-09-18T18:45:15.099Z,84
2022-09-18T18:50:15.097Z,84
2022-09-18T18:55:15.090Z,82
2022-09-18T19:00:15.100Z,83
2022-09-18T19:05:15.097Z,82
2022-09-18T19:10:15.097Z,82
2022-09-18T19:15:15.100Z,83
2022-09-18T19:20:15.088Z,83
2022-09-18T19:25:15.084Z,84
2022-09-18T19:30:15.097Z,84
2022-09-18T19:35:15.091Z,84
2022-09-18T19:40:15.130Z,84
2022-09-18T19:45:15.091Z,84
2022-09-18T19:50:15.102Z,85
2022-09-18T19:55:15.093Z,84
2022-09-18T20:00:15.091Z,85
2022-09-18T20:05:15.095Z,85
2022-09-18T20:10:15.108Z,85
2022-09-18T20:15:15.090Z,85
2022-09-18T20:20:16.511Z,85
2022-09-18T20:25:15.098Z,85
2022-09-18T20:30:15.098Z,85
2022-09-18T20:35:15.090Z,85
2022-09-18T20:40:15.128Z,85
2022-09-18T20:45:15.095Z,85
2022-09-18T20:50:15.110Z,85
2022-09-18T20:55:15.110Z,85
2022-09-18T21:00:15.113Z,85
2022-09-18T21:05:15.098Z,85
2022-09-18T21:10:15.115Z,85
2022-09-18T21:15:15.093Z,86
2022-09-18T21:20:15.105Z,86
2022-09-18T21:25:15.097Z,86
2022-09-18T21:30:15.099Z,86
2022-09-18T21:35:15.093Z,86
2022-09-18T21:40:15.118Z,86
2022-09-18T21:45:15.101Z,87
2022-09-18T21:50:15.103Z,87
2022-09-18T21:55:15.106Z,87
2022-09-18T22:00:15.105Z,87
2022-09-18T22:05:15.110Z,87
2022-09-18T22:10:15.102Z,86
2022-09-18T22:15:15.098Z,86
2022-09-18T22:20:15.116Z,86
2022-09-18T22:25:15.100Z,86
2022-09-18T22:30:15.105Z,86
2022-09-18T22:35:15.120Z,85
2022-09-18T22:40:15.180Z,85
2022-09-18T22:45:15.111Z,85
2022-09-18T22:50:15.111Z,85
2022-09-18T22:55:15.099Z,85
2022-09-18T23:00:16.540Z,85
2022-09-18T23:05:15.106Z,85
2022-09-18T23:10:15.108Z,85
2022-09-18T23:15:15.103Z,86
2022-09-18T23:20:15.101Z,86
2022-09-18T23:25:15.097Z,85
2022-09-18T23:30:15.096Z,86
2022-09-18T23:35:15.093Z,86
2022-09-18T23:40:15.123Z,85
2022-09-18T23:45:15.103Z,85
2022-09-18T23:50:15.114Z,86
2022-09-18T23:55:15.106Z,86
